This is the latest recevied weather packets stored in our database for station/object TAPIOLA. If no packets are shown the sender has not sent any weather packets the latest 10 day(s).
| Time | Temp. | Humidity | Pressure | Rain* | Wind** | Luminosity | Snow |
|---|---|---|---|---|---|---|---|
| 1788287072 | 15.56° C | 98% | 1007.6 hPa | 0 mm | - | - | - |
| 1788285871 | 15.56° C | 97% | 1007.7 hPa | 0 mm | - | - | - |
| 1788282273 | 16.11° C | 96% | 1007.6 hPa | 0 mm | - | - | - |
| 1788281072 | 16.67° C | 94% | 1007.5 hPa | 0 mm | - | - | - |
| 1788277471 | 18.33° C | 87% | 1007.7 hPa | 0 mm | - | - | - |
| 1788275071 | 18.89° C | 83% | 1007.8 hPa | 0 mm | - | - | - |
| 1788273871 | 18.89° C | 80% | 1007.8 hPa | 0 mm | - | - | - |
| 1788272670 | 19.44° C | 76% | 1007.8 hPa | 0 mm | - | - | - |
| 1788271471 | 19.44° C | 78% | 1008 hPa | 0 mm | - | - | - |
| 1788267870 | 19.44° C | 72% | 1008.1 hPa | 0 mm | - | - | - |
| 1788266670 | 19.44° C | 75% | 1008.1 hPa | 0 mm | - | - | - |
| 1788260670 | 18.89° C | 75% | 1008.6 hPa | 0 mm | - | - | - |
| 1788259260 | 18.89° C | 77% | 1008.6 hPa | 0 mm | - | - | - |
| 1788257069 | 18.33° C | 79% | 1008.4 hPa | 0 mm | - | - | - |
| 1788255871 | 18.33° C | 78% | 1008.3 hPa | 0 mm | - | - | - |
| 1788254671 | 18.33° C | 77% | 1008.2 hPa | 0 mm | - | - | - |
| 1788253259 | 17.78° C | 79% | 1008.2 hPa | 0 mm | - | - | - |
| 1788252270 | 18.33° C | 82% | 1008.2 hPa | 0 mm | - | - | - |
| 1788251069 | 17.78° C | 86% | 1008.2 hPa | 0 mm | - | - | - |
| 1788249870 | 18.33° C | 84% | 1008.1 hPa | 0 mm | - | - | - |
| 1788248668 | 17.78° C | 85% | 1008 hPa | 0 mm | - | - | - |
| 1788247470 | 17.78° C | 87% | 1008 hPa | 0 mm | - | - | - |
| 1788246269 | 17.78° C | 89% | 1008 hPa | 0 mm | - | - | - |
| 1788245069 | 17.22° C | 90% | 1008 hPa | 0 mm | - | - | - |
| 1788243868 | 17.22° C | 92% | 1007.8 hPa | 0 mm | - | - | - |
* Rain latest hour (hover to see other rain measurements)
** Current wind speed in m/s (hover to see current wind gust speed)